createdAt,value
2018-03-11T00:03:17.143Z,86.50
2018-03-11T00:08:15.416Z,86.10
2018-03-11T00:13:13.374Z,86.00
2018-03-11T00:18:13.663Z,87.80
2018-03-11T00:23:11.607Z,87.10
2018-03-11T00:28:10.081Z,87.10
2018-03-11T00:33:07.389Z,84.70
2018-03-11T00:38:11.527Z,83.10
2018-03-11T00:43:09.544Z,85.80
2018-03-11T00:48:13.362Z,85.70
2018-03-11T00:53:11.395Z,85.80
2018-03-11T00:58:14.655Z,85.80
2018-03-11T01:03:11.876Z,84.10
2018-03-11T01:08:12.035Z,85.00
2018-03-11T01:13:09.267Z,85.90
2018-03-11T01:18:13.994Z,84.80
2018-03-11T01:23:11.293Z,83.90
2018-03-11T01:28:11.700Z,80.80
2018-03-11T01:33:08.914Z,79.00
2018-03-11T01:38:09.816Z,80.10
2018-03-11T01:43:07.028Z,81.70
2018-03-11T01:48:09.972Z,82.00
2018-03-11T01:53:08.051Z,79.40
2018-03-11T01:58:08.743Z,80.50
2018-03-11T02:03:06.677Z,80.10
2018-03-11T02:08:06.915Z,80.10
2018-03-11T02:13:04.181Z,81.90
2018-03-11T02:18:02.516Z,84.70
2018-03-11T02:22:59.740Z,86.30
2018-03-11T02:28:01.297Z,88.50
2018-03-11T02:32:58.597Z,88.10
2018-03-11T02:37:59.775Z,86.30
2018-03-11T02:42:57.068Z,86.30
2018-03-11T02:48:00.523Z,87.10
2018-03-11T02:52:57.710Z,84.70
2018-03-11T02:58:01.791Z,83.30
2018-03-11T03:02:59.092Z,85.50
2018-03-11T03:08:03.630Z,87.80
2018-03-11T03:13:00.857Z,86.00
2018-03-11T03:17:59.101Z,85.20
2018-03-11T03:22:57.378Z,85.40
2018-03-11T03:28:00.046Z,84.60
2018-03-11T03:32:57.333Z,81.00
2018-03-11T03:38:01.217Z,69.70
2018-03-11T03:42:58.612Z,69.70
2018-03-11T03:48:10.516Z,70.00
2018-03-11T03:53:07.823Z,66.70
2018-03-11T03:58:09.725Z,63.10
2018-03-11T04:03:06.961Z,62.00
2018-03-11T04:08:07.529Z,67.80
2018-03-11T04:13:04.761Z,74.10
2018-03-11T04:18:09.472Z,77.20
2018-03-11T04:23:06.683Z,73.60
2018-03-11T04:28:07.684Z,77.40
2018-03-11T04:33:05.641Z,66.40
2018-03-11T04:38:03.909Z,66.30
2018-03-11T04:43:01.185Z,65.30
2018-03-11T04:47:59.413Z,64.50
2018-03-11T04:52:56.736Z,67.00
2018-03-11T04:58:00.077Z,73.80
2018-03-11T05:02:57.352Z,77.10
2018-03-11T05:07:58.239Z,80.40
2018-03-11T05:12:56.538Z,81.70
2018-03-11T05:18:04.437Z,81.60
2018-03-11T05:23:01.728Z,83.70
2018-03-11T05:28:13.282Z,80.40
2018-03-11T05:33:10.493Z,80.40
2018-03-11T05:38:18.478Z,83.90
2018-03-11T05:43:15.664Z,83.90
2018-03-11T05:48:13.877Z,84.40
2018-03-11T05:53:11.060Z,83.30
2018-03-11T05:58:18.585Z,82.00
2018-03-11T06:03:15.713Z,79.60
2018-03-11T06:08:13.988Z,76.10
2018-03-11T06:13:11.438Z,71.70
2018-03-11T06:18:12.366Z,69.70
2018-03-11T06:23:09.390Z,64.40
2018-03-11T06:28:12.239Z,62.70
2018-03-11T06:33:09.417Z,62.00
2018-03-11T06:38:07.600Z,58.30
2018-03-11T06:43:05.045Z,57.90
2018-03-11T06:48:03.338Z,56.40
2018-03-11T06:53:00.637Z,55.30
2018-03-11T06:58:01.600Z,55.50
2018-03-11T07:02:58.742Z,53.20
2018-03-11T07:07:57.075Z,51.10
2018-03-11T07:12:54.399Z,51.20
2018-03-11T07:17:58.915Z,52.10
2018-03-11T07:22:56.194Z,49.90
2018-03-11T07:27:57.198Z,50.90
2018-03-11T07:32:55.138Z,53.60
2018-03-11T07:37:58.989Z,53.50
2018-03-11T07:42:56.272Z,58.50
2018-03-11T07:47:55.817Z,58.00
2018-03-11T07:52:53.045Z,66.40
2018-03-11T07:57:53.786Z,64.90
2018-03-11T08:02:51.105Z,61.50
2018-03-11T08:07:50.766Z,55.70
2018-03-11T08:12:47.985Z,51.50
2018-03-11T08:17:56.072Z,55.00
2018-03-11T08:22:53.190Z,59.70
2018-03-11T08:27:53.924Z,57.20
2018-03-11T08:32:51.162Z,54.50
2018-03-11T08:37:58.719Z,53.80
2018-03-11T08:42:56.184Z,52.70
2018-03-11T08:48:08.508Z,53.40
2018-03-11T08:53:05.789Z,53.00
2018-03-11T08:58:06.014Z,52.20
2018-03-11T09:03:03.170Z,57.20
2018-03-11T09:08:06.769Z,57.60
2018-03-11T09:13:03.804Z,57.90
2018-03-11T09:18:05.433Z,56.40
2018-03-11T09:23:03.326Z,54.40
2018-03-11T09:28:13.820Z,54.40
2018-03-11T09:33:11.125Z,52.70
2018-03-11T09:38:20.385Z,50.40
2018-03-11T09:43:18.330Z,46.60
2018-03-11T09:48:23.018Z,46.30
2018-03-11T09:53:20.218Z,46.10
2018-03-11T09:58:17.456Z,44.10
2018-03-11T10:03:14.834Z,45.00
2018-03-11T10:08:28.790Z,43.20
2018-03-11T10:13:25.991Z,42.00
2018-03-11T10:18:24.334Z,41.70
2018-03-11T10:23:21.653Z,41.20
2018-03-11T10:28:24.396Z,44.80
2018-03-11T10:33:21.533Z,44.40
2018-03-11T10:38:21.945Z,42.10
2018-03-11T10:43:19.216Z,43.20
2018-03-11T10:48:27.016Z,42.70
2018-03-11T10:53:24.188Z,41.90
2018-03-11T10:58:23.341Z,39.50
2018-03-11T11:03:26.541Z,39.40
2018-03-11T11:08:31.769Z,39.90
2018-03-11T11:13:29.078Z,38.60
2018-03-11T11:18:32.270Z,39.70
2018-03-11T11:23:30.021Z,39.40
2018-03-11T11:28:33.195Z,39.70
2018-03-11T11:33:30.442Z,39.20
2018-03-11T11:38:33.944Z,40.70
2018-03-11T11:43:31.140Z,39.70
2018-03-11T11:48:36.230Z,39.00
2018-03-11T11:53:33.462Z,39.40
2018-03-11T11:58:34.682Z,37.00
2018-03-11T12:03:32.026Z,37.70
2018-03-11T12:08:35.766Z,38.60
2018-03-11T12:13:33.134Z,39.30
2018-03-11T12:18:30.423Z,38.50
2018-03-11T12:23:28.281Z,39.30
2018-03-11T12:28:32.153Z,39.40
2018-03-11T12:33:29.417Z,40.20
2018-03-11T12:38:32.926Z,38.90
2018-03-11T12:43:30.130Z,38.60
2018-03-11T12:48:31.295Z,37.60
2018-03-11T12:53:28.545Z,37.40
2018-03-11T12:58:29.078Z,38.30
2018-03-11T13:03:26.376Z,38.40
2018-03-11T13:08:25.060Z,38.10
2018-03-11T13:13:22.943Z,36.60
2018-03-11T13:18:44.438Z,38.90
2018-03-11T13:23:41.711Z,38.70
2018-03-11T13:28:50.226Z,43.00
2018-03-11T13:39:41.154Z,38.00
2018-03-11T13:44:38.574Z,41.30
2018-03-11T13:49:35.618Z,38.90
2018-03-11T13:54:33.873Z,37.70
2018-03-11T13:59:31.052Z,38.00
2018-03-11T14:04:29.393Z,39.80
2018-03-11T14:09:26.498Z,38.70
2018-03-11T14:14:24.801Z,37.70
2018-03-11T14:19:23.188Z,38.70
2018-03-11T14:24:21.610Z,40.90
2018-03-11T14:29:19.333Z,39.60
2018-03-11T14:34:16.365Z,38.10
2018-03-11T14:39:13.537Z,40.70
2018-03-11T14:44:10.694Z,42.80
2018-03-11T14:49:07.814Z,44.90
2018-03-11T14:54:05.078Z,46.70
2018-03-11T14:59:03.324Z,47.00
2018-03-11T15:04:00.544Z,46.90
2018-03-11T15:08:57.956Z,47.30
2018-03-11T15:13:55.334Z,47.50
2018-03-11T15:18:56.289Z,48.70
2018-03-11T15:23:53.568Z,48.30
2018-03-11T15:28:54.430Z,47.70
2018-03-11T15:33:51.741Z,47.80
2018-03-11T15:38:52.114Z,49.10
2018-03-11T15:43:49.278Z,54.60
2018-03-11T15:48:47.382Z,56.40
2018-03-11T15:53:44.761Z,57.10
2018-03-11T15:58:41.995Z,57.90
2018-03-11T16:03:40.027Z,62.00
2018-03-11T16:08:39.646Z,62.00
2018-03-11T16:13:37.001Z,64.30
2018-03-11T16:18:37.509Z,66.50
2018-03-11T16:23:34.767Z,67.00
2018-03-11T16:28:35.481Z,68.00
2018-03-11T16:33:32.658Z,68.00
2018-03-11T16:38:33.846Z,69.20
2018-03-11T16:43:31.174Z,71.90
2018-03-11T16:48:31.952Z,71.10
2018-03-11T16:53:29.270Z,70.90
2018-03-11T16:58:29.699Z,71.40
2018-03-11T17:03:27.018Z,71.90
2018-03-11T17:08:25.408Z,73.00
2018-03-11T17:13:22.797Z,74.00
2018-03-11T17:18:20.016Z,74.70
2018-03-11T17:23:17.284Z,73.90
2018-03-11T17:28:14.553Z,73.80
2018-03-11T17:33:11.770Z,76.10
2018-03-11T17:38:12.642Z,75.40
2018-03-11T17:43:09.871Z,77.20
2018-03-11T17:48:07.197Z,76.30
2018-03-11T17:53:04.323Z,75.00
2018-03-11T17:58:02.774Z,73.10
2018-03-11T18:03:00.023Z,69.40
2018-03-11T18:07:58.452Z,70.40
2018-03-11T18:12:55.743Z,73.70
2018-03-11T18:17:56.526Z,72.20
2018-03-11T18:22:53.891Z,70.90
2018-03-11T18:27:52.146Z,73.30
2018-03-11T18:32:49.514Z,74.10
2018-03-11T18:37:48.404Z,74.50
2018-03-11T18:42:45.822Z,72.30
2018-03-11T18:47:47.197Z,72.70
2018-03-11T18:52:45.006Z,73.30
2018-03-11T18:57:43.632Z,73.30
2018-03-11T19:02:41.503Z,76.90
2018-03-11T19:07:40.126Z,78.20
2018-03-11T19:12:37.298Z,77.60
2018-03-11T19:17:38.101Z,77.00
2018-03-11T19:22:35.402Z,75.30
2018-03-11T19:27:37.675Z,74.80
2018-03-11T19:32:34.834Z,73.60
2018-03-11T19:37:33.218Z,72.40
2018-03-11T19:42:30.593Z,72.50
2018-03-11T19:47:34.186Z,70.00
2018-03-11T19:52:31.311Z,70.00
2018-03-11T19:57:32.399Z,75.00
2018-03-11T20:02:29.715Z,76.50
2018-03-11T20:07:33.091Z,79.00
2018-03-11T20:12:30.396Z,78.30
2018-03-11T20:17:31.135Z,76.80
2018-03-11T20:22:28.553Z,75.10
2018-03-11T20:27:31.001Z,73.30
2018-03-11T20:32:28.350Z,75.70
2018-03-11T20:37:28.967Z,76.30
2018-03-11T20:42:26.327Z,77.30
2018-03-11T20:47:24.772Z,78.30
2018-03-11T20:52:21.985Z,77.10
2018-03-11T20:57:22.846Z,79.10
2018-03-11T21:02:20.145Z,79.10
2018-03-11T21:07:17.382Z,79.40
2018-03-11T21:12:15.010Z,79.60
2018-03-11T21:17:15.679Z,80.10
2018-03-11T21:22:13.272Z,80.30
2018-03-11T21:27:11.534Z,81.70
2018-03-11T21:32:08.666Z,82.80
2018-03-11T21:37:09.158Z,82.90
2018-03-11T21:42:06.395Z,86.00
2018-03-11T21:47:06.916Z,87.00
2018-03-11T21:52:04.680Z,87.60
2018-03-11T21:57:02.870Z,87.90
2018-03-11T22:01:59.993Z,88.70
2018-03-11T22:06:58.428Z,88.60
2018-03-11T22:11:55.735Z,90.30
2018-03-11T22:17:00.225Z,90.10
2018-03-11T22:21:58.014Z,90.00
2018-03-11T22:26:59.324Z,89.90
2018-03-11T22:31:56.527Z,89.00
2018-03-11T22:36:57.062Z,90.90
2018-03-11T22:41:54.994Z,90.60
2018-03-11T22:46:56.014Z,90.20
2018-03-11T22:51:53.249Z,90.10
2018-03-11T22:56:51.554Z,89.20
2018-03-11T23:01:48.933Z,89.20
2018-03-11T23:06:52.126Z,87.00
2018-03-11T23:11:49.197Z,88.50
2018-03-11T23:16:47.508Z,89.10
2018-03-11T23:21:44.797Z,87.90
2018-03-11T23:26:42.949Z,88.00
2018-03-11T23:31:39.930Z,88.30
2018-03-11T23:36:40.748Z,88.60
2018-03-11T23:41:38.769Z,89.20
2018-03-11T23:46:39.893Z,89.10
2018-03-11T23:51:37.219Z,87.90
2018-03-11T23:56:38.017Z,88.80
